createdAt,value
2024-01-15T00:01:35.302Z,98816.08
2024-01-15T00:07:01.208Z,98806.20
2024-01-15T00:12:28.577Z,98794.84
2024-01-15T00:17:47.284Z,98789.23
2024-01-15T00:23:13.168Z,98776.10
2024-01-15T00:28:31.283Z,98770.14
2024-01-15T00:33:57.095Z,98756.98
2024-01-15T00:39:22.829Z,98749.98
2024-01-15T00:44:48.538Z,98748.69
2024-01-15T00:50:14.273Z,98740.45
2024-01-15T00:55:32.783Z,98737.42
2024-01-15T01:00:57.151Z,98734.11
2024-01-15T01:06:23.180Z,98724.08
2024-01-15T01:11:41.591Z,98722.19
2024-01-15T01:17:07.304Z,98717.67
2024-01-15T01:22:33.021Z,98723.77
2024-01-15T01:27:59.058Z,98722.23
2024-01-15T01:33:25.199Z,98712.78
2024-01-15T01:38:50.970Z,98713.41
2024-01-15T01:44:16.658Z,98718.39
2024-01-15T01:49:42.621Z,98716.48
2024-01-15T01:55:08.896Z,98707.70
2024-01-15T02:00:36.908Z,98711.88
2024-01-15T02:06:04.386Z,98706.09
2024-01-15T02:11:30.156Z,98691.44
2024-01-15T02:16:55.826Z,98684.21
2024-01-15T02:22:21.511Z,98692.89
2024-01-15T02:27:39.986Z,98694.80
2024-01-15T02:33:06.223Z,98693.07
2024-01-15T02:38:32.128Z,98687.21
2024-01-15T02:43:57.809Z,98675.38
2024-01-15T02:49:22.531Z,98675.99
2024-01-15T02:54:48.372Z,98683.06
2024-01-15T03:00:14.423Z,98681.56
2024-01-15T03:05:40.510Z,98671.63
2024-01-15T03:11:06.194Z,98667.02
2024-01-15T03:16:32.946Z,98661.85
2024-01-15T03:21:58.636Z,98661.39
2024-01-15T03:27:24.847Z,98654.18
2024-01-15T03:32:50.967Z,98654.48
2024-01-15T03:38:15.389Z,98646.52
2024-01-15T03:43:41.180Z,98633.59
2024-01-15T03:49:06.933Z,98636.14
2024-01-15T03:54:32.791Z,98631.85
2024-01-15T03:59:50.794Z,98616.83
2024-01-15T04:05:14.851Z,98607.92
2024-01-15T04:10:40.519Z,98605.59
2024-01-15T04:16:06.255Z,98599.55
2024-01-15T04:21:31.932Z,98597.28
2024-01-15T04:26:57.610Z,98596.20
2024-01-15T04:32:23.573Z,98601.50
2024-01-15T04:37:49.317Z,98596.19
2024-01-15T04:43:14.933Z,98590.05
2024-01-15T04:48:40.791Z,98586.52
2024-01-15T04:54:07.158Z,98585.31
2024-01-15T04:59:32.960Z,98574.53
2024-01-15T05:04:58.618Z,98574.57
2024-01-15T05:10:24.556Z,98577.05
2024-01-15T05:15:50.412Z,98574.23
2024-01-15T05:21:16.157Z,98570.40
2024-01-15T05:26:41.846Z,98574.17
2024-01-15T05:32:07.646Z,98561.14
2024-01-15T05:37:33.442Z,98550.41
2024-01-15T05:42:59.207Z,98545.90
2024-01-15T05:48:25.435Z,98554.66
2024-01-15T05:53:52.671Z,98548.10
2024-01-15T05:59:14.940Z,98545.94
2024-01-15T06:04:41.667Z,98555.09
2024-01-15T06:10:00.275Z,98543.59
2024-01-15T06:15:25.835Z,98548.52
2024-01-15T06:20:43.889Z,98539.59
2024-01-15T06:26:09.655Z,98543.13
2024-01-15T06:31:35.560Z,98552.85
2024-01-15T06:37:01.446Z,98544.95
2024-01-15T06:42:27.982Z,98550.05
2024-01-15T06:47:53.775Z,98557.80
2024-01-15T06:53:19.630Z,98544.31
2024-01-15T06:58:45.311Z,98561.41
2024-01-15T07:04:11.060Z,98565.30
2024-01-15T07:09:36.866Z,98573.50
2024-01-15T07:15:02.586Z,98582.41
2024-01-15T07:20:30.375Z,98586.23
2024-01-15T07:25:56.125Z,98591.67
2024-01-15T07:31:21.941Z,98604.40
2024-01-15T07:36:47.780Z,98608.11
2024-01-15T07:42:13.678Z,98611.02
2024-01-15T07:47:39.361Z,98615.30
2024-01-15T07:53:05.063Z,98616.33
2024-01-15T07:58:30.899Z,98618.67
2024-01-15T08:03:56.797Z,98619.19
2024-01-15T08:09:22.584Z,98618.76
2024-01-15T08:14:48.272Z,98618.39
2024-01-15T08:20:06.849Z,98615.41
2024-01-15T08:25:33.003Z,98632.50
2024-01-15T08:30:58.879Z,98627.41
2024-01-15T08:36:25.704Z,98622.30
2024-01-15T08:41:51.533Z,98621.57
2024-01-15T08:47:17.162Z,98630.45
2024-01-15T08:52:42.845Z,98633.75
2024-01-15T08:58:08.530Z,98626.76
2024-01-15T09:03:19.434Z,98636.95
2024-01-15T09:08:28.836Z,98655.65
2024-01-15T09:13:54.491Z,98648.57
2024-01-15T09:19:20.259Z,98655.15
2024-01-15T09:24:46.008Z,98657.54
2024-01-15T09:30:04.414Z,98673.80
2024-01-15T09:35:30.005Z,98673.10
2024-01-15T09:40:59.625Z,98666.11
2024-01-15T09:46:18.616Z,98672.56
2024-01-15T09:51:47.203Z,98662.66
2024-01-15T09:57:17.434Z,98661.23
2024-01-15T10:02:35.834Z,98666.42
2024-01-15T10:08:02.584Z,98655.06
2024-01-15T10:13:27.804Z,98650.08
2024-01-15T10:18:47.129Z,98646.73
2024-01-15T10:24:13.092Z,98642.99
2024-01-15T10:29:39.006Z,98650.46
2024-01-15T10:35:04.783Z,98651.63
2024-01-15T10:40:31.675Z,98656.73
2024-01-15T10:45:57.570Z,98652.17
2024-01-15T10:51:26.323Z,98652.30
2024-01-15T10:56:52.938Z,98645.61
2024-01-15T11:02:17.571Z,98643.56
2024-01-15T11:07:46.652Z,98648.11
2024-01-15T11:13:06.761Z,98648.45
2024-01-15T11:18:32.666Z,98646.37
2024-01-15T11:24:09.407Z,98647.46
2024-01-15T11:29:53.054Z,98655.53
2024-01-15T11:35:20.291Z,98653.75
2024-01-15T11:41:00.023Z,98661.23
2024-01-15T11:46:32.017Z,98664.20
2024-01-15T11:51:56.752Z,98663.19
2024-01-15T11:57:25.611Z,98673.61
2024-01-15T12:02:51.351Z,98686.15
2024-01-15T12:08:15.819Z,98685.96
2024-01-15T12:13:42.223Z,98685.61
2024-01-15T12:19:07.969Z,98688.42
2024-01-15T12:24:33.755Z,98696.46
2024-01-15T12:30:00.708Z,98700.73
2024-01-15T12:35:27.940Z,98696.65
2024-01-15T12:40:54.777Z,98686.54
2024-01-15T12:46:20.748Z,98692.73
2024-01-15T12:51:39.540Z,98699.59
2024-01-15T12:57:05.193Z,98701.56
2024-01-15T13:02:30.987Z,98711.32
2024-01-15T13:07:56.609Z,98725.52
2024-01-15T13:13:22.301Z,98738.55
2024-01-15T13:18:48.074Z,98745.11
2024-01-15T13:24:14.140Z,98745.58
2024-01-15T13:29:39.844Z,98745.29
2024-01-15T13:35:09.098Z,98749.27
2024-01-15T13:40:35.245Z,98747.68
2024-01-15T13:46:01.100Z,98752.48
2024-01-15T13:51:27.348Z,98763.60
2024-01-15T13:56:53.064Z,98776.13
2024-01-15T14:02:21.200Z,98785.72
2024-01-15T14:07:48.136Z,98795.64
2024-01-15T14:13:13.792Z,98799.30
2024-01-15T14:18:39.609Z,98810.02
2024-01-15T14:24:06.138Z,98810.73
2024-01-15T14:29:31.707Z,98811.80
2024-01-15T14:34:58.858Z,98820.69
2024-01-15T14:40:24.964Z,98827.35
2024-01-15T14:45:50.863Z,98832.05
2024-01-15T14:51:16.515Z,98838.20
2024-01-15T14:56:42.765Z,98846.34
2024-01-15T15:02:09.469Z,98853.96
2024-01-15T15:07:36.358Z,98862.84
2024-01-15T15:13:02.201Z,98863.58
2024-01-15T15:18:28.106Z,98872.84
2024-01-15T15:23:53.863Z,98878.27
2024-01-15T15:29:19.537Z,98882.04
2024-01-15T15:34:45.384Z,98895.02
2024-01-15T15:40:03.835Z,98900.42
2024-01-15T15:45:30.786Z,98912.69
2024-01-15T15:50:54.893Z,98916.99
2024-01-15T15:56:20.529Z,98928.23
2024-01-15T16:01:46.306Z,98934.25
2024-01-15T16:07:12.089Z,98943.20
2024-01-15T16:12:36.506Z,98948.46
2024-01-15T16:23:18.076Z,98958.45
2024-01-15T16:24:08.204Z,98965.44
2024-01-15T16:29:28.435Z,98971.39
2024-01-15T16:34:54.141Z,98980.17
2024-01-15T16:40:12.396Z,98981.38
2024-01-15T16:45:38.145Z,98985.77
2024-01-15T16:51:04.073Z,98990.38
2024-01-15T16:56:29.824Z,98995.96
2024-01-15T17:01:55.625Z,99005.05
2024-01-15T17:07:21.285Z,99013.19
2024-01-15T17:12:46.959Z,99023.14
2024-01-15T17:18:12.721Z,99036.46
2024-01-15T17:23:38.738Z,99049.60
2024-01-15T17:29:04.544Z,99055.40
2024-01-15T17:34:30.320Z,99061.30
2024-01-15T17:39:56.028Z,99068.38
2024-01-15T17:45:21.715Z,99073.02
2024-01-15T17:50:47.980Z,99073.23
2024-01-15T17:56:13.886Z,99077.79
2024-01-15T18:01:39.930Z,99081.90
2024-01-15T18:07:05.707Z,99094.08
2024-01-15T18:12:30.457Z,99102.10
2024-01-15T18:17:56.291Z,99108.31
2024-01-15T18:23:22.024Z,99111.95
2024-01-15T18:28:47.743Z,99122.30
2024-01-15T18:34:15.569Z,99128.35
2024-01-15T18:39:41.667Z,99141.64
2024-01-15T18:45:07.363Z,99150.88
2024-01-15T18:50:33.283Z,99158.17
2024-01-15T18:55:59.191Z,99164.77
2024-01-15T19:01:25.087Z,99175.73
2024-01-15T19:06:50.819Z,99187.08
2024-01-15T19:12:16.662Z,99193.02
2024-01-15T19:17:42.412Z,99205.52
2024-01-15T19:23:07.020Z,99204.05
2024-01-15T19:28:32.708Z,99213.73
2024-01-15T19:33:58.682Z,99216.91
2024-01-15T19:39:24.531Z,99223.27
2024-01-15T19:44:50.418Z,99234.92
2024-01-15T19:50:16.187Z,99252.17
2024-01-15T19:55:41.992Z,99261.98
2024-01-15T20:01:07.770Z,99267.00
2024-01-15T20:06:33.744Z,99278.40
2024-01-15T20:11:59.535Z,99289.05
2024-01-15T20:17:26.348Z,99296.33
2024-01-15T20:22:52.189Z,99301.87
2024-01-15T20:28:08.045Z,99320.46
2024-01-15T20:33:34.573Z,99335.48
2024-01-15T20:39:00.680Z,99346.70
2024-01-15T20:44:26.619Z,99350.31
2024-01-15T20:49:52.325Z,99357.13
2024-01-15T20:55:17.997Z,99362.21
2024-01-15T21:00:43.950Z,99363.02
2024-01-15T21:06:10.822Z,99366.73
2024-01-15T21:11:36.703Z,99376.00
2024-01-15T21:16:54.704Z,99383.49
2024-01-15T21:22:20.440Z,99387.37
2024-01-15T21:27:46.191Z,99388.59
2024-01-15T21:33:11.971Z,99394.35
2024-01-15T21:38:37.861Z,99403.46
2024-01-15T21:44:01.911Z,99417.41
2024-01-15T21:49:27.790Z,99422.59
2024-01-15T21:54:53.635Z,99433.75
2024-01-15T22:00:19.311Z,99439.38
2024-01-15T22:05:45.008Z,99444.89
2024-01-15T22:11:10.721Z,99454.70
2024-01-15T22:16:36.407Z,99457.42
2024-01-15T22:22:05.448Z,99456.39
2024-01-15T22:27:31.096Z,99453.01
2024-01-15T22:32:49.486Z,99447.37
2024-01-15T22:38:15.365Z,99447.17
2024-01-15T22:43:41.126Z,99443.83
2024-01-15T22:49:07.003Z,99455.80
2024-01-15T22:54:31.600Z,99461.95
2024-01-15T22:59:57.445Z,99468.09
2024-01-15T23:05:24.120Z,99462.77
2024-01-15T23:10:48.318Z,99460.01
2024-01-15T23:16:13.982Z,99471.64
2024-01-15T23:21:39.791Z,99475.23
2024-01-15T23:27:05.459Z,99475.11
2024-01-15T23:32:31.185Z,99481.48
2024-01-15T23:37:56.911Z,99465.91
2024-01-15T23:43:21.230Z,99472.20
2024-01-15T23:48:47.039Z,99481.55
2024-01-15T23:54:11.158Z,99482.65
2024-01-15T23:59:37.046Z,99484.38
